Airport View

Enter AWOS ICAO identifier for current METAR.

ex. KFNL

KPUC 112053Z AUTO 00000KT 10SM FEW027 SCT120 02/M04 A3018 RMK AO2 SLP260 T00171044 56013

11 Dec 2019 21:53

Frequency: 135.425

Phone: 435-637-2790

Other Area AWOS: KPVU - KHCR - K36U - KCNY

TAF AMD KPVU 111930Z 1120/1218 33005KT P6SM SCT050 BKN070 FM120500 16005KT P6SM SCT050 BKN100 FM121300 16004KT P6SM SCT030 BKN050